S.arturo — ILJH — position and weather

sailwx.info

Track history (hours):
 
Tides and Currents Weather Stations Pressure Air Temp Water Temp Dewpoint Dewpoint Depression Visibility Wind Speed Wind Dir Waves Ship Positions

S.arturo

Last reported at 2018-Mar-14 14:34 UTC. Time now 2018-Apr-22 08:30 UTC.
Position N 39°40' E 016°31'.
Warning: this ship's position is 38 days out of date.

Type: Fishing. MMSI: 247133560.

Date/timePositionNaut miles runAvg speedWind from/ knotsBaromVisibWave heightAir tempDewpointWater temp
2018-Mar-14 14:34N 39°40' E 016°31'1 7.0
2018-Mar-14 14:22N 39°41' E 016°33'3 2.6
2018-Mar-14 13:19N 39°42' E 016°36'1 2.6
2018-Mar-14 12:55N 39°43' E 016°37'1 2.7
2018-Mar-14 12:28N 39°44' E 016°37'6 0.3
2018-Mar-13 14:36N 39°40' E 016°31'0 0.0
2018-Mar-13 14:17N 39°40' E 016°31'13 2.2
2018-Mar-13 08:22N 39°51' E 016°41'13 0.7
2018-Mar-12 13:35N 39°40' E 016°33'1 7.0
2018-Mar-12 13:27N 39°40' E 016°34'7 2.9
2018-Mar-12 11:05N 39°39' E 016°43'1 2.8
2018-Mar-12 10:48N 39°40' E 016°42'15 2.4
2018-Mar-12 04:30N 39°55' E 016°39'12 2.5
2018-Mar-11 23:37N 39°44' E 016°32'4 0.1
2018-Mar-10 09:58N 39°40' E 016°31'  
2018-Mar-07 08:08N 39°39' E 016°41'1 8.4
2018-Mar-07 08:00N 39°39' E 016°42'5 5.0
2018-Mar-07 06:57N 39°37' E 016°48'1 2.8
2018-Mar-07 06:27N 39°36' E 016°50'1 2.7
2018-Mar-07 05:58N 39°36' E 016°51'3 0.8
2018-Mar-07 01:49N 39°37' E 016°48'0 1.0
2018-Mar-07 01:21N 39°37' E 016°48'1 2.8
2018-Mar-07 00:56N 39°36' E 016°50'1 2.7
2018-Mar-07 00:29N 39°36' E 016°51'2 0.5
2018-Mar-06 20:03N 39°37' E 016°48'0 6.9
2018-Mar-06 20:01N 39°37' E 016°49'1 1.3
2018-Mar-06 19:06N 39°36' E 016°50'1 2.4
2018-Mar-06 18:45N 39°36' E 016°51'  
Track history (hours):
 
Tides and Currents Weather Stations Pressure Air Temp Water Temp Dewpoint Dewpoint Depression Visibility Wind Speed Wind Dir Waves Ship Positions

S.arturo

Last reported at 2018-Mar-14 14:34 UTC. Time now 2018-Apr-22 08:30 UTC.
Position N 39°40' E 016°31'.
Warning: this ship's position is 38 days out of date.

Type: Fishing. MMSI: 247133560.

Date/timePositionNaut miles runAvg speedWind from/ knotsBaromVisibWave heightAir tempDewpointWater temp
2018-Mar-14 14:34N 39°40' E 016°31'1 7.0
2018-Mar-14 14:22N 39°41' E 016°33'3 2.6
2018-Mar-14 13:19N 39°42' E 016°36'1 2.6
2018-Mar-14 12:55N 39°43' E 016°37'1 2.7
2018-Mar-14 12:28N 39°44' E 016°37'6 0.3
2018-Mar-13 14:36N 39°40' E 016°31'0 0.0
2018-Mar-13 14:17N 39°40' E 016°31'13 2.2
2018-Mar-13 08:22N 39°51' E 016°41'13 0.7
2018-Mar-12 13:35N 39°40' E 016°33'1 7.0
2018-Mar-12 13:27N 39°40' E 016°34'7 2.9
2018-Mar-12 11:05N 39°39' E 016°43'1 2.8
2018-Mar-12 10:48N 39°40' E 016°42'15 2.4
2018-Mar-12 04:30N 39°55' E 016°39'12 2.5
2018-Mar-11 23:37N 39°44' E 016°32'4 0.1
2018-Mar-10 09:58N 39°40' E 016°31'  
2018-Mar-07 08:08N 39°39' E 016°41'1 8.4
2018-Mar-07 08:00N 39°39' E 016°42'5 5.0
2018-Mar-07 06:57N 39°37' E 016°48'1 2.8
2018-Mar-07 06:27N 39°36' E 016°50'1 2.7
2018-Mar-07 05:58N 39°36' E 016°51'3 0.8
2018-Mar-07 01:49N 39°37' E 016°48'0 1.0
2018-Mar-07 01:21N 39°37' E 016°48'1 2.8
2018-Mar-07 00:56N 39°36' E 016°50'1 2.7
2018-Mar-07 00:29N 39°36' E 016°51'2 0.5
2018-Mar-06 20:03N 39°37' E 016°48'0 6.9
2018-Mar-06 20:01N 39°37' E 016°49'1 1.3
2018-Mar-06 19:06N 39°36' E 016°50'1 2.4
2018-Mar-06 18:45N 39°36' E 016°51'  

Dump ship's entire track history